createdAt,value
2023-03-06T00:01:28.871Z,3.60
2023-03-06T00:04:30.959Z,4.07
2023-03-06T00:07:33.199Z,3.88
2023-03-06T00:10:35.600Z,3.70
2023-03-06T00:13:38.657Z,3.63
2023-03-06T00:16:40.803Z,3.28
2023-03-06T00:19:42.994Z,3.43
2023-03-06T00:22:45.282Z,3.67
2023-03-06T00:25:47.441Z,3.35
2023-03-06T00:28:49.557Z,3.70
2023-03-06T00:31:52.319Z,3.65
2023-03-06T00:34:55.321Z,3.40
2023-03-06T00:37:59.729Z,3.20
2023-03-06T00:41:10.039Z,3.70
2023-03-06T00:44:12.231Z,3.53
2023-03-06T00:47:17.199Z,3.20
2023-03-06T00:50:19.538Z,2.90
2023-03-06T00:53:21.689Z,3.90
2023-03-06T00:56:25.137Z,3.10
2023-03-06T00:59:30.402Z,2.90
2023-03-06T01:02:32.821Z,3.58
2023-03-06T01:05:36.606Z,3.28
2023-03-06T01:08:38.795Z,3.22
2023-03-06T01:11:41.026Z,3.45
2023-03-06T01:14:43.128Z,3.50
2023-03-06T01:17:45.446Z,3.60
2023-03-06T01:20:47.645Z,3.23
2023-03-06T01:23:49.816Z,3.17
2023-03-06T01:26:51.932Z,3.30
2023-03-06T01:29:54.109Z,3.07
2023-03-06T01:32:56.980Z,3.25
2023-03-06T01:35:59.219Z,3.30
2023-03-06T01:39:01.445Z,3.60
2023-03-06T01:42:03.954Z,3.40
2023-03-06T01:45:09.528Z,3.70
2023-03-06T01:48:12.257Z,3.30
2023-03-06T01:51:14.871Z,3.20
2023-03-06T01:54:52.740Z,3.30
2023-03-06T01:57:57.716Z,3.88
2023-03-06T02:01:00.004Z,3.20
2023-03-06T02:04:02.464Z,3.58
2023-03-06T02:07:08.371Z,3.45
2023-03-06T02:10:10.976Z,3.40
2023-03-06T02:13:13.241Z,3.60
2023-03-06T02:16:16.313Z,3.40
2023-03-06T02:19:35.661Z,3.50
2023-03-06T02:22:44.404Z,3.63
2023-03-06T02:25:48.711Z,2.90
2023-03-06T02:28:50.940Z,3.28
2023-03-06T02:31:53.195Z,3.17
2023-03-06T02:34:57.206Z,3.25
2023-03-06T02:38:03.563Z,3.10
2023-03-06T02:41:08.440Z,3.40
2023-03-06T02:44:10.714Z,3.67
2023-03-06T02:47:13.007Z,3.55
2023-03-06T02:50:15.183Z,3.60
2023-03-06T02:53:18.944Z,2.97
2023-03-06T02:56:21.177Z,3.22
2023-03-06T02:59:23.523Z,2.90
2023-03-06T03:02:26.262Z,3.07
2023-03-06T03:05:28.508Z,3.00
2023-03-06T03:08:37.404Z,3.45
2023-03-06T03:11:40.492Z,3.45
2023-03-06T03:14:42.773Z,3.25
2023-03-06T03:17:45.053Z,3.67
2023-03-06T03:20:47.288Z,3.10
2023-03-06T03:23:49.727Z,3.17
2023-03-06T03:26:51.973Z,3.40
2023-03-06T03:30:00.340Z,3.33
2023-03-06T03:33:04.472Z,3.30
2023-03-06T03:36:08.563Z,3.25
2023-03-06T03:39:15.243Z,3.25
2023-03-06T03:42:18.223Z,2.90
2023-03-06T03:45:20.575Z,3.05
2023-03-06T03:48:22.859Z,3.13
2023-03-06T03:51:25.522Z,3.35
2023-03-06T03:54:30.281Z,2.73
2023-03-06T03:57:32.598Z,3.72
2023-03-06T04:00:35.619Z,3.40
2023-03-06T04:03:45.820Z,3.33
2023-03-06T04:06:50.869Z,3.10
2023-03-06T04:09:54.786Z,3.40
2023-03-06T04:13:00.186Z,3.40
2023-03-06T04:16:04.679Z,3.75
2023-03-06T04:19:08.794Z,3.33
2023-03-06T04:22:11.150Z,3.10
2023-03-06T04:25:14.796Z,3.00
2023-03-06T04:28:17.151Z,3.45
2023-03-06T04:31:19.932Z,3.50
2023-03-06T04:34:22.437Z,3.27
2023-03-06T04:37:25.761Z,3.38
2023-03-06T04:40:31.563Z,3.33
2023-03-06T04:43:39.541Z,3.67
2023-03-06T04:46:41.720Z,3.60
2023-03-06T04:49:43.834Z,3.60
2023-03-06T04:52:46.270Z,3.47
2023-03-06T04:55:48.474Z,3.50
2023-03-06T04:58:53.529Z,3.90
2023-03-06T05:01:55.932Z,3.60
2023-03-06T05:04:58.112Z,3.63
2023-03-06T05:08:00.313Z,3.90
2023-03-06T05:21:28.495Z,4.00
2023-03-06T05:24:33.575Z,4.40
2023-03-06T05:31:09.005Z,3.95
2023-03-06T05:34:28.057Z,4.00
2023-03-06T05:37:31.339Z,4.10
2023-03-06T05:40:34.031Z,3.72
2023-03-06T05:43:36.180Z,4.57
2023-03-06T05:46:38.529Z,4.15
2023-03-06T05:49:41.133Z,4.13
2023-03-06T05:52:43.710Z,4.28
2023-03-06T05:55:45.815Z,4.32
2023-03-06T05:58:48.318Z,3.60
2023-03-06T06:01:53.429Z,4.10
2023-03-06T06:04:55.645Z,4.13
2023-03-06T06:07:57.795Z,4.00
2023-03-06T06:11:00.021Z,3.88
2023-03-06T06:14:02.167Z,4.00
2023-03-06T06:17:04.647Z,4.22
2023-03-06T06:20:10.642Z,4.35
2023-03-06T06:23:13.151Z,4.18
2023-03-06T06:26:15.556Z,4.43
2023-03-06T06:29:18.170Z,4.17
2023-03-06T06:32:20.410Z,4.65
2023-03-06T06:35:23.415Z,4.22
2023-03-06T06:38:25.752Z,3.80
2023-03-06T06:41:46.292Z,4.43
2023-03-06T06:44:51.481Z,4.00
2023-03-06T06:47:53.808Z,4.07
2023-03-06T06:50:59.625Z,4.25
2023-03-06T06:54:01.863Z,4.28
2023-03-06T06:57:04.113Z,4.25
2023-03-06T07:00:09.428Z,4.17
2023-03-06T07:03:14.777Z,4.22
2023-03-06T07:06:17.105Z,4.28
2023-03-06T07:09:24.169Z,4.63
2023-03-06T07:12:26.492Z,4.32
2023-03-06T07:15:30.790Z,4.38
2023-03-06T07:18:32.948Z,4.43
2023-03-06T07:21:35.190Z,4.97
2023-03-06T07:24:37.382Z,4.65
2023-03-06T07:27:40.698Z,4.78
2023-03-06T07:30:43.261Z,4.90
2023-03-06T07:33:45.384Z,5.25
2023-03-06T07:36:47.571Z,4.82
2023-03-06T07:39:49.780Z,5.07
2023-03-06T07:43:09.140Z,5.15
2023-03-06T07:46:19.286Z,4.97
2023-03-06T07:49:21.641Z,5.22
2023-03-06T07:52:26.470Z,6.20
2023-03-06T07:55:29.910Z,6.53
2023-03-06T07:58:32.127Z,5.88
2023-03-06T08:01:36.506Z,5.80
2023-03-06T08:04:39.333Z,6.20
2023-03-06T08:07:42.778Z,6.15
2023-03-06T08:10:49.406Z,5.70
2023-03-06T08:13:52.949Z,5.50
2023-03-06T08:16:56.345Z,5.93
2023-03-06T08:19:58.530Z,5.97
2023-03-06T08:23:00.892Z,6.03
2023-03-06T08:26:06.258Z,5.70
2023-03-06T08:29:10.100Z,5.93
2023-03-06T08:32:12.646Z,5.90
2023-03-06T08:35:15.569Z,6.03
2023-03-06T08:38:18.049Z,5.90
2023-03-06T08:41:22.929Z,5.53
2023-03-06T08:44:26.316Z,5.75
2023-03-06T08:47:32.085Z,5.47
2023-03-06T08:50:41.880Z,6.00
2023-03-06T08:53:45.834Z,5.68
2023-03-06T08:56:48.073Z,5.85
2023-03-06T08:59:50.697Z,6.13
2023-03-06T09:02:57.542Z,6.07
2023-03-06T09:06:02.927Z,5.72
2023-03-06T09:09:06.904Z,6.70
2023-03-06T09:12:09.330Z,6.23
2023-03-06T09:15:12.760Z,5.90
2023-03-06T09:18:14.953Z,6.25
2023-03-06T09:21:17.161Z,6.07
2023-03-06T09:24:19.393Z,6.10
2023-03-06T09:27:22.756Z,5.97
2023-03-06T09:30:25.674Z,6.10
2023-03-06T09:33:28.766Z,5.97
2023-03-06T09:36:31.010Z,6.28
2023-03-06T09:39:34.191Z,6.18
2023-03-06T09:42:37.822Z,5.70
2023-03-06T09:45:40.550Z,5.85
2023-03-06T09:48:45.593Z,6.03
2023-03-06T09:52:08.709Z,5.60
2023-03-06T09:55:27.201Z,5.80
2023-03-06T09:58:32.292Z,5.30
2023-03-06T10:01:44.906Z,5.78
2023-03-06T10:04:55.838Z,6.00
2023-03-06T10:08:03.656Z,5.70
2023-03-06T10:11:09.336Z,5.50
2023-03-06T10:14:33.540Z,5.83
2023-03-06T10:17:38.279Z,5.55
2023-03-06T10:21:13.418Z,5.65
2023-03-06T10:24:38.201Z,5.22
2023-03-06T10:27:46.999Z,5.65
2023-03-06T10:31:00.341Z,5.32
2023-03-06T10:34:28.962Z,6.28
2023-03-06T10:37:32.571Z,5.37
2023-03-06T10:40:46.314Z,5.47
2023-03-06T10:44:00.720Z,6.20
2023-03-06T10:47:30.133Z,6.33
2023-03-06T10:50:34.531Z,5.57
2023-03-06T10:53:49.298Z,6.28
2023-03-06T10:56:54.271Z,5.65
2023-03-06T11:00:15.303Z,5.68
2023-03-06T11:03:30.726Z,5.95
2023-03-06T11:06:44.487Z,5.80
2023-03-06T11:10:02.286Z,5.60
2023-03-06T11:13:07.667Z,5.53
2023-03-06T11:16:44.826Z,6.30
2023-03-06T11:19:50.428Z,5.63
2023-03-06T11:22:56.771Z,4.70
2023-03-06T11:26:24.836Z,4.70
2023-03-06T11:29:44.713Z,5.00
2023-03-06T11:32:56.010Z,5.20
2023-03-06T11:36:12.511Z,4.90
2023-03-06T11:39:26.669Z,5.45
2023-03-06T11:42:43.659Z,4.70
2023-03-06T11:45:51.646Z,4.88
2023-03-06T11:49:14.065Z,4.80
2023-03-06T11:52:37.379Z,5.47
2023-03-06T11:56:19.255Z,5.93
2023-03-06T11:59:40.628Z,5.47
2023-03-06T12:03:11.538Z,5.65
2023-03-06T12:06:37.035Z,5.38
2023-03-06T12:09:56.798Z,5.28
2023-03-06T12:16:50.186Z,6.03
2023-03-06T12:20:32.233Z,5.15
2023-03-06T12:23:40.445Z,4.85
2023-03-06T12:26:59.929Z,5.60
2023-03-06T12:30:25.718Z,5.10
2023-03-06T12:34:02.208Z,5.03
2023-03-06T12:37:20.163Z,4.80
2023-03-06T12:40:26.581Z,5.40
2023-03-06T12:43:56.794Z,5.45
2023-03-06T12:47:15.181Z,5.30
2023-03-06T12:50:26.221Z,5.30
2023-03-06T12:53:35.216Z,4.65
2023-03-06T12:56:42.993Z,5.40
2023-03-06T12:59:49.294Z,5.47
2023-03-06T13:03:17.318Z,5.70
2023-03-06T13:06:30.898Z,5.70
2023-03-06T13:10:13.965Z,5.43
2023-03-06T13:13:41.702Z,5.35
2023-03-06T13:16:43.945Z,5.90
2023-03-06T13:19:46.696Z,5.47
2023-03-06T13:22:49.068Z,5.97
2023-03-06T13:25:51.398Z,5.72
2023-03-06T13:28:54.845Z,6.72
2023-03-06T13:32:00.037Z,6.27
2023-03-06T13:35:02.798Z,6.00
2023-03-06T13:38:17.216Z,6.20
2023-03-06T13:41:22.501Z,6.70
2023-03-06T13:44:24.708Z,6.30
2023-03-06T13:47:29.897Z,7.13
2023-03-06T13:50:45.315Z,6.85
2023-03-06T13:54:01.701Z,6.80
2023-03-06T13:57:10.398Z,7.15
2023-03-06T14:00:57.297Z,6.43
2023-03-06T14:04:11.402Z,7.27
2023-03-06T14:07:33.455Z,6.00
2023-03-06T14:10:37.082Z,6.65
2023-03-06T14:13:47.553Z,7.53
2023-03-06T14:16:53.525Z,6.60
2023-03-06T14:19:59.831Z,6.63
2023-03-06T14:23:28.008Z,6.95
2023-03-06T14:26:40.364Z,6.53
2023-03-06T14:29:42.643Z,5.90
2023-03-06T14:32:45.249Z,6.57
2023-03-06T14:35:51.544Z,7.07
2023-03-06T14:38:56.939Z,7.57
2023-03-06T14:42:29.159Z,7.35
2023-03-06T14:45:31.333Z,7.47
2023-03-06T14:48:45.318Z,7.82
2023-03-06T14:52:00.524Z,7.70
2023-03-06T14:55:02.929Z,7.53
2023-03-06T14:58:14.805Z,6.77
2023-03-06T15:01:23.131Z,7.40
2023-03-06T15:04:42.565Z,7.63
2023-03-06T15:07:45.481Z,7.70
2023-03-06T15:11:04.112Z,6.93
2023-03-06T15:14:06.331Z,8.00
2023-03-06T15:17:41.490Z,6.95
2023-03-06T15:20:54.128Z,7.45
2023-03-06T15:23:57.077Z,7.63
2023-03-06T15:27:14.289Z,7.53
2023-03-06T15:30:27.556Z,7.03
2023-03-06T15:33:30.122Z,7.50
2023-03-06T15:36:35.213Z,6.32
2023-03-06T15:39:39.461Z,7.10
2023-03-06T15:42:42.538Z,7.07
2023-03-06T15:45:44.781Z,7.63
2023-03-06T15:48:54.665Z,7.97
2023-03-06T15:51:56.956Z,7.57
2023-03-06T15:54:59.465Z,7.75
2023-03-06T15:58:04.921Z,7.20
2023-03-06T16:01:08.096Z,7.43
2023-03-06T16:04:10.390Z,7.57
2023-03-06T16:07:13.009Z,7.40
2023-03-06T16:10:23.015Z,7.37
2023-03-06T16:13:27.387Z,7.78
2023-03-06T16:16:36.630Z,7.55
2023-03-06T16:19:38.820Z,7.68
2023-03-06T16:22:41.056Z,7.60
2023-03-06T16:25:45.865Z,8.43
2023-03-06T16:28:49.601Z,7.57
2023-03-06T16:31:52.043Z,7.03
2023-03-06T16:34:54.146Z,7.97
2023-03-06T16:37:56.614Z,7.20
2023-03-06T16:40:58.798Z,7.23
2023-03-06T16:44:00.997Z,7.40
2023-03-06T16:47:03.178Z,7.68
2023-03-06T16:50:07.199Z,7.85
2023-03-06T16:53:09.378Z,7.68
2023-03-06T16:56:17.050Z,7.43
2023-03-06T16:59:19.290Z,7.47
2023-03-06T17:02:21.405Z,7.37
2023-03-06T17:05:24.365Z,7.15
2023-03-06T17:08:26.810Z,7.80
2023-03-06T17:11:29.394Z,6.83
2023-03-06T17:14:33.765Z,7.43
2023-03-06T17:17:36.011Z,7.63
2023-03-06T17:20:38.545Z,7.25
2023-03-06T17:23:40.912Z,7.60
2023-03-06T17:26:44.293Z,7.40
2023-03-06T17:29:46.604Z,7.05
2023-03-06T17:32:48.848Z,6.67
2023-03-06T17:35:57.739Z,6.80
2023-03-06T17:39:01.943Z,6.85
2023-03-06T17:42:04.739Z,7.37
2023-03-06T17:45:09.335Z,7.40
2023-03-06T17:48:11.875Z,7.80
2023-03-06T17:51:14.186Z,7.97
2023-03-06T17:54:16.414Z,8.15
2023-03-06T17:57:18.596Z,8.18
2023-03-06T18:00:22.840Z,9.02
2023-03-06T18:03:25.325Z,9.40
2023-03-06T18:06:30.144Z,8.50
2023-03-06T18:09:32.409Z,7.72
2023-03-06T18:12:34.607Z,9.10
2023-03-06T18:15:40.463Z,8.07
2023-03-06T18:18:42.805Z,8.40
2023-03-06T18:21:47.211Z,8.57
2023-03-06T18:24:49.371Z,8.55
2023-03-06T18:27:51.524Z,8.35
2023-03-06T18:30:53.635Z,8.70
2023-03-06T18:33:58.128Z,8.20
2023-03-06T18:37:00.247Z,9.57
2023-03-06T18:40:02.379Z,8.18
2023-03-06T18:43:04.518Z,8.60
2023-03-06T18:46:07.053Z,8.57
2023-03-06T18:49:11.062Z,8.65
2023-03-06T18:52:13.487Z,8.45
2023-03-06T18:55:15.811Z,8.73
2023-03-06T18:58:19.040Z,8.90
2023-03-06T19:01:22.435Z,9.15
2023-03-06T19:04:25.787Z,9.03
2023-03-06T19:07:27.931Z,7.95
2023-03-06T19:10:31.317Z,8.57
2023-03-06T19:13:33.632Z,8.13
2023-03-06T19:16:35.800Z,9.15
2023-03-06T19:19:38.009Z,8.30
2023-03-06T19:22:40.229Z,8.82
2023-03-06T19:25:42.479Z,8.98
2023-03-06T19:28:45.211Z,8.90
2023-03-06T19:31:47.466Z,9.05
2023-03-06T19:34:49.707Z,8.70
2023-03-06T19:37:52.327Z,9.02
2023-03-06T19:40:54.881Z,8.82
2023-03-06T19:43:59.668Z,8.70
2023-03-06T19:47:01.781Z,8.77
2023-03-06T19:50:04.263Z,8.35
2023-03-06T19:53:07.768Z,8.73
2023-03-06T19:56:31.885Z,8.30
2023-03-06T19:59:34.102Z,8.40
2023-03-06T20:02:36.501Z,8.95
2023-03-06T20:05:45.713Z,8.87
2023-03-06T20:08:48.924Z,8.52
2023-03-06T20:11:51.127Z,8.88
2023-03-06T20:14:53.336Z,8.80
2023-03-06T20:17:56.770Z,8.77
2023-03-06T20:21:00.896Z,9.30
2023-03-06T20:24:04.572Z,9.60
2023-03-06T20:27:06.921Z,10.00
2023-03-06T20:30:09.620Z,8.65
2023-03-06T20:33:11.854Z,10.20
2023-03-06T20:36:27.474Z,9.57
2023-03-06T20:39:29.716Z,10.48
2023-03-06T20:42:32.203Z,9.90
2023-03-06T20:45:34.586Z,10.33
2023-03-06T20:48:36.835Z,10.35
2023-03-06T20:51:39.733Z,10.50
2023-03-06T20:54:41.925Z,10.18
2023-03-06T20:57:44.097Z,10.35
2023-03-06T21:00:46.451Z,9.98
2023-03-06T21:03:49.488Z,9.60
2023-03-06T21:06:53.337Z,9.90
2023-03-06T21:09:55.712Z,10.13
2023-03-06T21:12:57.897Z,10.07
2023-03-06T21:16:03.904Z,10.17
2023-03-06T21:19:06.375Z,10.30
2023-03-06T21:22:08.637Z,10.55
2023-03-06T21:25:12.735Z,11.02
2023-03-06T21:28:15.164Z,10.50
2023-03-06T21:31:19.488Z,11.55
2023-03-06T21:34:21.631Z,11.30
2023-03-06T21:37:23.854Z,11.10
2023-03-06T21:40:26.005Z,10.85
2023-03-06T21:43:28.121Z,11.93
2023-03-06T21:46:30.468Z,11.27
2023-03-06T21:49:32.706Z,11.25
2023-03-06T21:52:34.910Z,11.43
2023-03-06T21:55:40.836Z,11.60
2023-03-06T21:58:43.347Z,12.15
2023-03-06T22:01:47.449Z,12.15
2023-03-06T22:04:53.229Z,11.80
2023-03-06T22:07:59.344Z,11.63
2023-03-06T22:11:08.851Z,12.05
2023-03-06T22:14:11.120Z,11.02
2023-03-06T22:17:13.628Z,12.37
2023-03-06T22:20:15.867Z,12.13
2023-03-06T22:23:18.095Z,12.15
2023-03-06T22:26:20.523Z,11.88
2023-03-06T22:29:23.972Z,12.18
2023-03-06T22:32:26.308Z,12.77
2023-03-06T22:35:28.545Z,12.48
2023-03-06T22:38:30.899Z,11.70
2023-03-06T22:41:33.150Z,12.30
2023-03-06T22:44:35.438Z,12.80
2023-03-06T22:47:37.746Z,12.77
2023-03-06T22:50:39.910Z,12.50
2023-03-06T22:53:42.740Z,12.60
2023-03-06T22:56:44.913Z,13.02
2023-03-06T22:59:47.103Z,12.05
2023-03-06T23:02:49.289Z,12.77
2023-03-06T23:05:51.472Z,13.20
2023-03-06T23:08:56.360Z,13.77
2023-03-06T23:11:58.715Z,13.48
2023-03-06T23:15:19.145Z,13.15
2023-03-06T23:18:40.686Z,12.77
2023-03-06T23:22:01.112Z,12.82
2023-03-06T23:25:21.961Z,12.93
2023-03-06T23:28:24.079Z,13.38
2023-03-06T23:31:28.837Z,13.73
2023-03-06T23:34:30.978Z,12.88
2023-03-06T23:37:33.222Z,12.30
2023-03-06T23:40:36.795Z,12.70
2023-03-06T23:43:39.244Z,12.80
2023-03-06T23:46:41.502Z,12.68
2023-03-06T23:49:43.708Z,13.57
2023-03-06T23:52:46.019Z,12.52
2023-03-06T23:55:50.304Z,13.73
2023-03-06T23:58:52.526Z,12.10
